sensor_id;sensor_type;location;lat;lon;timestamp;P1;durP1;ratioP1;P2;durP2;ratioP2
43337;SDS011;28933;52.492;13.434;2023-08-06T00:02:38;8.15;;;5.57;;
43337;SDS011;28933;52.492;13.434;2023-08-06T00:05:24;6.65;;;5.20;;
43337;SDS011;28933;52.492;13.434;2023-08-06T00:08:09;6.97;;;5.35;;
43337;SDS011;28933;52.492;13.434;2023-08-06T00:10:55;6.88;;;5.22;;
43337;SDS011;28933;52.492;13.434;2023-08-06T00:13:41;7.25;;;5.22;;
43337;SDS011;28933;52.492;13.434;2023-08-06T00:16:27;8.65;;;5.22;;
43337;SDS011;28933;52.492;13.434;2023-08-06T00:19:13;7.95;;;5.80;;
43337;SDS011;28933;52.492;13.434;2023-08-06T00:21:59;7.65;;;5.38;;
43337;SDS011;28933;52.492;13.434;2023-08-06T00:24:47;7.55;;;4.85;;
43337;SDS011;28933;52.492;13.434;2023-08-06T00:27:33;9.63;;;5.28;;
43337;SDS011;28933;52.492;13.434;2023-08-06T00:30:19;9.93;;;5.40;;
43337;SDS011;28933;52.492;13.434;2023-08-06T00:33:04;6.68;;;5.32;;
43337;SDS011;28933;52.492;13.434;2023-08-06T00:35:51;7.80;;;5.05;;
43337;SDS011;28933;52.492;13.434;2023-08-06T00:38:37;6.22;;;4.93;;
43337;SDS011;28933;52.492;13.434;2023-08-06T00:41:23;8.20;;;5.00;;
43337;SDS011;28933;52.492;13.434;2023-08-06T00:44:08;9.40;;;5.53;;
43337;SDS011;28933;52.492;13.434;2023-08-06T00:46:55;7.88;;;4.85;;
43337;SDS011;28933;52.492;13.434;2023-08-06T00:49:41;6.90;;;5.07;;
43337;SDS011;28933;52.492;13.434;2023-08-06T00:52:27;6.50;;;4.93;;
43337;SDS011;28933;52.492;13.434;2023-08-06T00:55:13;6.80;;;5.10;;
43337;SDS011;28933;52.492;13.434;2023-08-06T00:57:59;6.97;;;5.57;;
43337;SDS011;28933;52.492;13.434;2023-08-06T01:00:45;6.82;;;4.57;;
43337;SDS011;28933;52.492;13.434;2023-08-06T01:03:31;7.47;;;4.90;;
43337;SDS011;28933;52.492;13.434;2023-08-06T01:06:18;8.80;;;5.57;;
43337;SDS011;28933;52.492;13.434;2023-08-06T01:09:16;7.05;;;5.30;;
43337;SDS011;28933;52.492;13.434;2023-08-06T01:15:52;7.20;;;5.10;;
43337;SDS011;28933;52.492;13.434;2023-08-06T01:18:44;5.68;;;4.28;;
43337;SDS011;28933;52.492;13.434;2023-08-06T01:21:34;6.70;;;5.10;;
43337;SDS011;28933;52.492;13.434;2023-08-06T01:24:20;8.32;;;5.10;;
43337;SDS011;28933;52.492;13.434;2023-08-06T01:27:09;6.20;;;4.80;;
43337;SDS011;28933;52.492;13.434;2023-08-06T01:30:05;5.93;;;4.78;;
43337;SDS011;28933;52.492;13.434;2023-08-06T01:33:00;7.60;;;4.90;;
43337;SDS011;28933;52.492;13.434;2023-08-06T01:35:51;5.38;;;4.72;;
43337;SDS011;28933;52.492;13.434;2023-08-06T01:38:39;6.60;;;5.00;;
43337;SDS011;28933;52.492;13.434;2023-08-06T01:41:25;6.00;;;4.63;;
43337;SDS011;28933;52.492;13.434;2023-08-06T01:44:11;6.05;;;4.43;;
43337;SDS011;28933;52.492;13.434;2023-08-06T01:46:56;7.32;;;4.85;;
43337;SDS011;28933;52.492;13.434;2023-08-06T01:49:42;7.70;;;4.93;;
43337;SDS011;28933;52.492;13.434;2023-08-06T01:52:28;5.78;;;4.93;;
43337;SDS011;28933;52.492;13.434;2023-08-06T01:55:14;6.85;;;4.60;;
43337;SDS011;28933;52.492;13.434;2023-08-06T01:58:00;6.05;;;5.00;;
43337;SDS011;28933;52.492;13.434;2023-08-06T02:00:46;6.50;;;5.35;;
43337;SDS011;28933;52.492;13.434;2023-08-06T02:03:32;5.85;;;4.55;;
43337;SDS011;28933;52.492;13.434;2023-08-06T02:06:18;8.38;;;5.20;;
43337;SDS011;28933;52.492;13.434;2023-08-06T02:09:04;7.18;;;5.05;;
43337;SDS011;28933;52.492;13.434;2023-08-06T02:11:50;9.13;;;6.05;;
43337;SDS011;28933;52.492;13.434;2023-08-06T02:14:37;7.00;;;5.55;;
43337;SDS011;28933;52.492;13.434;2023-08-06T02:17:22;6.38;;;5.22;;
43337;SDS011;28933;52.492;13.434;2023-08-06T02:20:08;6.50;;;5.63;;
43337;SDS011;28933;52.492;13.434;2023-08-06T02:22:55;7.82;;;5.80;;
43337;SDS011;28933;52.492;13.434;2023-08-06T02:25:41;7.00;;;5.22;;
43337;SDS011;28933;52.492;13.434;2023-08-06T02:28:26;6.53;;;5.53;;
43337;SDS011;28933;52.492;13.434;2023-08-06T02:31:13;7.15;;;5.57;;
43337;SDS011;28933;52.492;13.434;2023-08-06T02:33:59;7.38;;;5.25;;
43337;SDS011;28933;52.492;13.434;2023-08-06T02:36:45;5.95;;;4.80;;
43337;SDS011;28933;52.492;13.434;2023-08-06T02:39:31;7.55;;;5.63;;
43337;SDS011;28933;52.492;13.434;2023-08-06T02:42:19;7.45;;;5.13;;
43337;SDS011;28933;52.492;13.434;2023-08-06T02:45:05;7.43;;;5.05;;
43337;SDS011;28933;52.492;13.434;2023-08-06T02:47:51;8.80;;;5.28;;
43337;SDS011;28933;52.492;13.434;2023-08-06T02:50:37;7.65;;;4.88;;
43337;SDS011;28933;52.492;13.434;2023-08-06T02:53:24;6.20;;;4.72;;
43337;SDS011;28933;52.492;13.434;2023-08-06T02:56:10;7.07;;;4.80;;
43337;SDS011;28933;52.492;13.434;2023-08-06T02:58:56;5.50;;;4.50;;
43337;SDS011;28933;52.492;13.434;2023-08-06T03:01:42;7.85;;;3.90;;
43337;SDS011;28933;52.492;13.434;2023-08-06T03:04:28;5.38;;;4.72;;
43337;SDS011;28933;52.492;13.434;2023-08-06T03:07:14;5.45;;;4.45;;
43337;SDS011;28933;52.492;13.434;2023-08-06T03:10:00;6.85;;;4.35;;
43337;SDS011;28933;52.492;13.434;2023-08-06T03:12:47;6.97;;;3.85;;
43337;SDS011;28933;52.492;13.434;2023-08-06T03:15:33;4.43;;;3.90;;
43337;SDS011;28933;52.492;13.434;2023-08-06T03:18:20;5.32;;;4.30;;
43337;SDS011;28933;52.492;13.434;2023-08-06T03:21:06;5.40;;;4.15;;
43337;SDS011;28933;52.492;13.434;2023-08-06T04:49:42;7.10;;;4.95;;
43337;SDS011;28933;52.492;13.434;2023-08-06T04:52:28;6.28;;;4.82;;
43337;SDS011;28933;52.492;13.434;2023-08-06T04:55:14;6.35;;;4.82;;
43337;SDS011;28933;52.492;13.434;2023-08-06T04:58:00;7.80;;;5.25;;
43337;SDS011;28933;52.492;13.434;2023-08-06T05:00:45;6.50;;;4.80;;
43337;SDS011;28933;52.492;13.434;2023-08-06T05:03:31;5.45;;;4.68;;
43337;SDS011;28933;52.492;13.434;2023-08-06T05:06:17;6.00;;;4.75;;
43337;SDS011;28933;52.492;13.434;2023-08-06T05:09:03;6.22;;;4.75;;
43337;SDS011;28933;52.492;13.434;2023-08-06T05:11:51;5.80;;;4.65;;
43337;SDS011;28933;52.492;13.434;2023-08-06T05:14:37;5.90;;;4.40;;
43337;SDS011;28933;52.492;13.434;2023-08-06T05:17:23;6.57;;;5.07;;
43337;SDS011;28933;52.492;13.434;2023-08-06T05:20:09;5.90;;;4.43;;
43337;SDS011;28933;52.492;13.434;2023-08-06T05:22:56;5.55;;;4.60;;
43337;SDS011;28933;52.492;13.434;2023-08-06T05:25:42;5.30;;;4.07;;
43337;SDS011;28933;52.492;13.434;2023-08-06T05:28:28;6.75;;;4.60;;
43337;SDS011;28933;52.492;13.434;2023-08-06T05:31:14;6.32;;;4.53;;
43337;SDS011;28933;52.492;13.434;2023-08-06T05:34:00;6.43;;;4.32;;
43337;SDS011;28933;52.492;13.434;2023-08-06T05:36:46;5.90;;;4.25;;
43337;SDS011;28933;52.492;13.434;2023-08-06T05:39:32;6.90;;;5.25;;
43337;SDS011;28933;52.492;13.434;2023-08-06T05:42:18;6.15;;;4.43;;
43337;SDS011;28933;52.492;13.434;2023-08-06T05:45:04;5.82;;;4.55;;
43337;SDS011;28933;52.492;13.434;2023-08-06T05:47:50;5.43;;;4.47;;
43337;SDS011;28933;52.492;13.434;2023-08-06T05:50:36;7.40;;;4.72;;
43337;SDS011;28933;52.492;13.434;2023-08-06T05:53:22;6.95;;;4.93;;
43337;SDS011;28933;52.492;13.434;2023-08-06T05:56:08;6.80;;;5.20;;
43337;SDS011;28933;52.492;13.434;2023-08-06T05:58:54;5.93;;;4.78;;
43337;SDS011;28933;52.492;13.434;2023-08-06T06:01:40;7.50;;;5.75;;
43337;SDS011;28933;52.492;13.434;2023-08-06T06:04:28;6.60;;;5.38;;
43337;SDS011;28933;52.492;13.434;2023-08-06T06:07:14;7.53;;;5.35;;
43337;SDS011;28933;52.492;13.434;2023-08-06T06:10:00;5.85;;;4.63;;
43337;SDS011;28933;52.492;13.434;2023-08-06T06:12:46;6.18;;;5.10;;
43337;SDS011;28933;52.492;13.434;2023-08-06T06:15:32;8.75;;;4.97;;
43337;SDS011;28933;52.492;13.434;2023-08-06T06:18:18;6.93;;;5.10;;
43337;SDS011;28933;52.492;13.434;2023-08-06T06:21:03;5.95;;;4.82;;
43337;SDS011;28933;52.492;13.434;2023-08-06T06:23:49;6.35;;;4.97;;
43337;SDS011;28933;52.492;13.434;2023-08-06T06:26:36;6.93;;;5.75;;
43337;SDS011;28933;52.492;13.434;2023-08-06T06:29:22;8.43;;;5.90;;
43337;SDS011;28933;52.492;13.434;2023-08-06T06:32:08;7.57;;;5.97;;
43337;SDS011;28933;52.492;13.434;2023-08-06T06:34:54;7.15;;;4.80;;
43337;SDS011;28933;52.492;13.434;2023-08-06T06:37:40;5.72;;;4.68;;
43337;SDS011;28933;52.492;13.434;2023-08-06T06:40:26;6.18;;;5.00;;
43337;SDS011;28933;52.492;13.434;2023-08-06T06:43:12;6.30;;;4.80;;
43337;SDS011;28933;52.492;13.434;2023-08-06T06:45:58;7.32;;;5.60;;
43337;SDS011;28933;52.492;13.434;2023-08-06T06:48:45;8.35;;;5.32;;
43337;SDS011;28933;52.492;13.434;2023-08-06T06:51:31;6.82;;;5.38;;
43337;SDS011;28933;52.492;13.434;2023-08-06T06:54:17;6.50;;;5.50;;
43337;SDS011;28933;52.492;13.434;2023-08-06T06:57:03;7.25;;;5.28;;
43337;SDS011;28933;52.492;13.434;2023-08-06T06:59:49;8.00;;;5.10;;
43337;SDS011;28933;52.492;13.434;2023-08-06T07:02:35;7.32;;;5.45;;
43337;SDS011;28933;52.492;13.434;2023-08-06T07:05:21;6.85;;;5.45;;
43337;SDS011;28933;52.492;13.434;2023-08-06T07:08:07;6.85;;;5.20;;
43337;SDS011;28933;52.492;13.434;2023-08-06T07:11:00;7.75;;;5.32;;
43337;SDS011;28933;52.492;13.434;2023-08-06T07:13:47;7.88;;;6.03;;
43337;SDS011;28933;52.492;13.434;2023-08-06T07:16:35;7.03;;;5.25;;
43337;SDS011;28933;52.492;13.434;2023-08-06T07:19:21;7.63;;;4.68;;
43337;SDS011;28933;52.492;13.434;2023-08-06T07:22:07;7.72;;;5.40;;
43337;SDS011;28933;52.492;13.434;2023-08-06T07:24:52;7.03;;;5.47;;
43337;SDS011;28933;52.492;13.434;2023-08-06T07:27:38;5.47;;;4.57;;
43337;SDS011;28933;52.492;13.434;2023-08-06T07:30:24;6.10;;;4.60;;
43337;SDS011;28933;52.492;13.434;2023-08-06T07:33:11;5.82;;;4.55;;
43337;SDS011;28933;52.492;13.434;2023-08-06T07:35:57;7.57;;;5.15;;
43337;SDS011;28933;52.492;13.434;2023-08-06T07:38:43;7.45;;;5.28;;
43337;SDS011;28933;52.492;13.434;2023-08-06T07:41:29;6.95;;;5.18;;
43337;SDS011;28933;52.492;13.434;2023-08-06T07:44:15;5.15;;;4.35;;
43337;SDS011;28933;52.492;13.434;2023-08-06T07:47:01;6.55;;;5.00;;
43337;SDS011;28933;52.492;13.434;2023-08-06T07:49:47;6.30;;;4.68;;
43337;SDS011;28933;52.492;13.434;2023-08-06T07:52:33;6.78;;;4.90;;
43337;SDS011;28933;52.492;13.434;2023-08-06T07:55:18;5.70;;;4.53;;
43337;SDS011;28933;52.492;13.434;2023-08-06T07:58:04;5.47;;;4.38;;
43337;SDS011;28933;52.492;13.434;2023-08-06T08:00:50;5.32;;;4.35;;
43337;SDS011;28933;52.492;13.434;2023-08-06T08:03:37;6.65;;;4.20;;
43337;SDS011;28933;52.492;13.434;2023-08-06T08:06:23;5.65;;;3.97;;
43337;SDS011;28933;52.492;13.434;2023-08-06T08:09:09;6.80;;;4.18;;
43337;SDS011;28933;52.492;13.434;2023-08-06T08:11:54;5.53;;;4.28;;
43337;SDS011;28933;52.492;13.434;2023-08-06T08:14:40;6.38;;;4.53;;
43337;SDS011;28933;52.492;13.434;2023-08-06T08:17:27;4.93;;;3.70;;
43337;SDS011;28933;52.492;13.434;2023-08-06T08:20:13;4.90;;;3.70;;
43337;SDS011;28933;52.492;13.434;2023-08-06T08:22:59;5.55;;;3.88;;
43337;SDS011;28933;52.492;13.434;2023-08-06T08:25:45;6.13;;;4.07;;
43337;SDS011;28933;52.492;13.434;2023-08-06T08:28:31;5.22;;;3.65;;
43337;SDS011;28933;52.492;13.434;2023-08-06T08:31:17;6.28;;;4.25;;
43337;SDS011;28933;52.492;13.434;2023-08-06T08:34:03;7.28;;;4.88;;
43337;SDS011;28933;52.492;13.434;2023-08-06T08:36:49;6.90;;;5.03;;
43337;SDS011;28933;52.492;13.434;2023-08-06T08:39:35;5.75;;;4.10;;
43337;SDS011;28933;52.492;13.434;2023-08-06T08:42:24;5.72;;;4.13;;
43337;SDS011;28933;52.492;13.434;2023-08-06T08:45:11;6.65;;;4.85;;
43337;SDS011;28933;52.492;13.434;2023-08-06T08:47:59;6.45;;;5.28;;
43337;SDS011;28933;52.492;13.434;2023-08-06T08:50:46;6.03;;;4.72;;
43337;SDS011;28933;52.492;13.434;2023-08-06T08:53:33;7.60;;;5.03;;
43337;SDS011;28933;52.492;13.434;2023-08-06T08:56:23;6.88;;;5.30;;
43337;SDS011;28933;52.492;13.434;2023-08-06T08:59:10;8.43;;;5.05;;
43337;SDS011;28933;52.492;13.434;2023-08-06T09:01:56;7.05;;;5.28;;
43337;SDS011;28933;52.492;13.434;2023-08-06T09:04:43;6.32;;;5.07;;
43337;SDS011;28933;52.492;13.434;2023-08-06T09:07:40;6.50;;;5.43;;
43337;SDS011;28933;52.492;13.434;2023-08-06T09:10:30;7.95;;;5.70;;
43337;SDS011;28933;52.492;13.434;2023-08-06T09:13:17;6.57;;;4.97;;
43337;SDS011;28933;52.492;13.434;2023-08-06T09:16:03;7.07;;;5.15;;
43337;SDS011;28933;52.492;13.434;2023-08-06T09:18:49;6.45;;;5.40;;
43337;SDS011;28933;52.492;13.434;2023-08-06T09:21:41;8.10;;;6.10;;
43337;SDS011;28933;52.492;13.434;2023-08-06T09:24:28;8.82;;;6.38;;
43337;SDS011;28933;52.492;13.434;2023-08-06T09:27:14;10.50;;;6.07;;
43337;SDS011;28933;52.492;13.434;2023-08-06T09:30:01;8.85;;;6.32;;
43337;SDS011;28933;52.492;13.434;2023-08-06T09:32:47;8.02;;;6.07;;
43337;SDS011;28933;52.492;13.434;2023-08-06T09:35:34;7.32;;;5.30;;
43337;SDS011;28933;52.492;13.434;2023-08-06T09:38:19;11.50;;;6.32;;
43337;SDS011;28933;52.492;13.434;2023-08-06T09:41:06;8.10;;;4.95;;
43337;SDS011;28933;52.492;13.434;2023-08-06T09:43:52;7.88;;;6.18;;
43337;SDS011;28933;52.492;13.434;2023-08-06T09:46:38;6.60;;;5.15;;
43337;SDS011;28933;52.492;13.434;2023-08-06T09:52:22;9.50;;;6.10;;
43337;SDS011;28933;52.492;13.434;2023-08-06T09:55:08;7.22;;;5.30;;
43337;SDS011;28933;52.492;13.434;2023-08-06T09:57:59;9.32;;;6.47;;
43337;SDS011;28933;52.492;13.434;2023-08-06T10:00:45;7.72;;;6.05;;
43337;SDS011;28933;52.492;13.434;2023-08-06T10:03:31;6.55;;;5.43;;
43337;SDS011;28933;52.492;13.434;2023-08-06T10:06:19;8.38;;;6.28;;
43337;SDS011;28933;52.492;13.434;2023-08-06T10:09:07;12.45;;;7.93;;
43337;SDS011;28933;52.492;13.434;2023-08-06T10:11:54;9.82;;;7.78;;
43337;SDS011;28933;52.492;13.434;2023-08-06T10:14:42;11.90;;;8.85;;
43337;SDS011;28933;52.492;13.434;2023-08-06T10:17:29;10.45;;;7.03;;
43337;SDS011;28933;52.492;13.434;2023-08-06T10:20:18;9.40;;;5.80;;
43337;SDS011;28933;52.492;13.434;2023-08-06T10:23:06;6.88;;;5.43;;
43337;SDS011;28933;52.492;13.434;2023-08-06T10:25:53;7.60;;;6.28;;
43337;SDS011;28933;52.492;13.434;2023-08-06T10:28:41;11.15;;;6.40;;
43337;SDS011;28933;52.492;13.434;2023-08-06T10:31:52;6.85;;;5.18;;
43337;SDS011;28933;52.492;13.434;2023-08-06T10:34:58;8.10;;;4.90;;
43337;SDS011;28933;52.492;13.434;2023-08-06T10:37:45;10.07;;;5.43;;
43337;SDS011;28933;52.492;13.434;2023-08-06T10:40:32;6.63;;;4.82;;
43337;SDS011;28933;52.492;13.434;2023-08-06T10:43:28;6.40;;;4.43;;
43337;SDS011;28933;52.492;13.434;2023-08-06T10:46:22;8.57;;;6.45;;
43337;SDS011;28933;52.492;13.434;2023-08-06T10:49:11;10.25;;;6.68;;
43337;SDS011;28933;52.492;13.434;2023-08-06T10:52:02;12.55;;;7.60;;
43337;SDS011;28933;52.492;13.434;2023-08-06T10:54:48;7.75;;;5.72;;
43337;SDS011;28933;52.492;13.434;2023-08-06T10:57:34;9.00;;;6.53;;
43337;SDS011;28933;52.492;13.434;2023-08-06T11:00:23;6.38;;;4.88;;
43337;SDS011;28933;52.492;13.434;2023-08-06T11:03:09;9.25;;;5.90;;
43337;SDS011;28933;52.492;13.434;2023-08-06T11:05:55;5.25;;;4.07;;
43337;SDS011;28933;52.492;13.434;2023-08-06T11:08:46;10.32;;;6.97;;
43337;SDS011;28933;52.492;13.434;2023-08-06T11:11:33;23.17;;;12.90;;
43337;SDS011;28933;52.492;13.434;2023-08-06T11:14:19;38.50;;;18.55;;
43337;SDS011;28933;52.492;13.434;2023-08-06T11:17:06;8.82;;;5.47;;
43337;SDS011;28933;52.492;13.434;2023-08-06T11:19:53;12.75;;;8.00;;
43337;SDS011;28933;52.492;13.434;2023-08-06T11:22:39;8.43;;;5.90;;
43337;SDS011;28933;52.492;13.434;2023-08-06T11:25:25;9.90;;;5.95;;
43337;SDS011;28933;52.492;13.434;2023-08-06T11:28:12;12.27;;;7.55;;
43337;SDS011;28933;52.492;13.434;2023-08-06T11:30:58;6.63;;;4.82;;
43337;SDS011;28933;52.492;13.434;2023-08-06T11:33:47;5.80;;;4.03;;
43337;SDS011;28933;52.492;13.434;2023-08-06T11:36:36;5.80;;;4.57;;
43337;SDS011;28933;52.492;13.434;2023-08-06T11:39:26;5.18;;;4.00;;
43337;SDS011;28933;52.492;13.434;2023-08-06T11:42:12;4.95;;;4.03;;
43337;SDS011;28933;52.492;13.434;2023-08-06T11:44:58;6.35;;;4.15;;
43337;SDS011;28933;52.492;13.434;2023-08-06T11:47:49;6.53;;;4.68;;
43337;SDS011;28933;52.492;13.434;2023-08-06T11:50:37;5.72;;;4.47;;
43337;SDS011;28933;52.492;13.434;2023-08-06T11:53:27;6.05;;;4.43;;
43337;SDS011;28933;52.492;13.434;2023-08-06T11:56:13;6.55;;;4.72;;
43337;SDS011;28933;52.492;13.434;2023-08-06T11:58:59;6.55;;;5.43;;
43337;SDS011;28933;52.492;13.434;2023-08-06T12:01:46;6.88;;;4.53;;
43337;SDS011;28933;52.492;13.434;2023-08-06T12:04:32;7.03;;;4.57;;
43337;SDS011;28933;52.492;13.434;2023-08-06T12:13:24;6.05;;;4.25;;
43337;SDS011;28933;52.492;13.434;2023-08-06T12:16:10;6.47;;;4.30;;
43337;SDS011;28933;52.492;13.434;2023-08-06T12:18:56;8.88;;;4.82;;
43337;SDS011;28933;52.492;13.434;2023-08-06T12:21:42;6.70;;;4.80;;
43337;SDS011;28933;52.492;13.434;2023-08-06T12:24:28;7.75;;;5.65;;
43337;SDS011;28933;52.492;13.434;2023-08-06T12:27:17;8.85;;;5.43;;
43337;SDS011;28933;52.492;13.434;2023-08-06T12:30:03;7.82;;;5.40;;
43337;SDS011;28933;52.492;13.434;2023-08-06T12:32:50;7.05;;;4.88;;
43337;SDS011;28933;52.492;13.434;2023-08-06T12:35:37;8.23;;;5.75;;
43337;SDS011;28933;52.492;13.434;2023-08-06T12:38:23;9.05;;;5.53;;
43337;SDS011;28933;52.492;13.434;2023-08-06T12:41:09;9.15;;;5.78;;
43337;SDS011;28933;52.492;13.434;2023-08-06T12:43:55;9.48;;;6.38;;
43337;SDS011;28933;52.492;13.434;2023-08-06T12:46:41;7.90;;;5.70;;
43337;SDS011;28933;52.492;13.434;2023-08-06T12:49:27;11.13;;;6.05;;
43337;SDS011;28933;52.492;13.434;2023-08-06T12:52:14;8.20;;;6.30;;
43337;SDS011;28933;52.492;13.434;2023-08-06T12:55:00;8.50;;;6.10;;
43337;SDS011;28933;52.492;13.434;2023-08-06T12:57:46;8.05;;;6.72;;
43337;SDS011;28933;52.492;13.434;2023-08-06T13:00:32;9.25;;;6.88;;
43337;SDS011;28933;52.492;13.434;2023-08-06T13:03:19;9.10;;;5.72;;
43337;SDS011;28933;52.492;13.434;2023-08-06T13:06:05;7.10;;;5.38;;
43337;SDS011;28933;52.492;13.434;2023-08-06T13:08:51;8.52;;;5.57;;
43337;SDS011;28933;52.492;13.434;2023-08-06T13:11:37;10.38;;;6.32;;
43337;SDS011;28933;52.492;13.434;2023-08-06T13:14:25;7.45;;;5.70;;
43337;SDS011;28933;52.492;13.434;2023-08-06T13:17:11;10.15;;;7.13;;
43337;SDS011;28933;52.492;13.434;2023-08-06T13:19:57;8.85;;;5.93;;
43337;SDS011;28933;52.492;13.434;2023-08-06T13:22:43;7.10;;;5.32;;
43337;SDS011;28933;52.492;13.434;2023-08-06T13:25:31;6.78;;;5.13;;
43337;SDS011;28933;52.492;13.434;2023-08-06T13:28:22;8.00;;;5.82;;
43337;SDS011;28933;52.492;13.434;2023-08-06T13:31:08;7.13;;;5.72;;
43337;SDS011;28933;52.492;13.434;2023-08-06T13:33:54;9.50;;;5.97;;
43337;SDS011;28933;52.492;13.434;2023-08-06T13:36:43;10.23;;;6.20;;
43337;SDS011;28933;52.492;13.434;2023-08-06T13:39:29;8.05;;;6.00;;
43337;SDS011;28933;52.492;13.434;2023-08-06T13:42:14;8.55;;;6.10;;
43337;SDS011;28933;52.492;13.434;2023-08-06T13:45:00;13.70;;;6.82;;
43337;SDS011;28933;52.492;13.434;2023-08-06T13:47:49;10.32;;;6.07;;
43337;SDS011;28933;52.492;13.434;2023-08-06T13:50:35;9.52;;;6.05;;
43337;SDS011;28933;52.492;13.434;2023-08-06T13:53:22;9.10;;;6.32;;
43337;SDS011;28933;52.492;13.434;2023-08-06T13:56:08;9.80;;;6.20;;
43337;SDS011;28933;52.492;13.434;2023-08-06T13:58:56;7.68;;;5.60;;
43337;SDS011;28933;52.492;13.434;2023-08-06T14:01:42;6.93;;;5.07;;
43337;SDS011;28933;52.492;13.434;2023-08-06T14:04:28;7.97;;;5.45;;
43337;SDS011;28933;52.492;13.434;2023-08-06T14:07:14;7.63;;;5.97;;
43337;SDS011;28933;52.492;13.434;2023-08-06T14:10:00;8.88;;;5.93;;
43337;SDS011;28933;52.492;13.434;2023-08-06T14:12:46;8.40;;;5.90;;
43337;SDS011;28933;52.492;13.434;2023-08-06T14:15:32;7.45;;;5.80;;
43337;SDS011;28933;52.492;13.434;2023-08-06T14:18:18;8.07;;;6.20;;
43337;SDS011;28933;52.492;13.434;2023-08-06T14:21:04;10.13;;;6.43;;
43337;SDS011;28933;52.492;13.434;2023-08-06T14:23:50;9.02;;;6.20;;
43337;SDS011;28933;52.492;13.434;2023-08-06T14:26:36;13.40;;;7.00;;
43337;SDS011;28933;52.492;13.434;2023-08-06T14:29:22;11.93;;;6.68;;
43337;SDS011;28933;52.492;13.434;2023-08-06T14:32:08;8.50;;;4.70;;
43337;SDS011;28933;52.492;13.434;2023-08-06T14:34:54;6.20;;;3.50;;
43337;SDS011;28933;52.492;13.434;2023-08-06T14:37:40;6.70;;;3.53;;
43337;SDS011;28933;52.492;13.434;2023-08-06T14:40:26;9.07;;;3.97;;
43337;SDS011;28933;52.492;13.434;2023-08-06T14:43:18;7.80;;;3.90;;
43337;SDS011;28933;52.492;13.434;2023-08-06T14:46:04;7.70;;;4.60;;
43337;SDS011;28933;52.492;13.434;2023-08-06T14:48:50;8.80;;;4.65;;
43337;SDS011;28933;52.492;13.434;2023-08-06T14:51:36;7.18;;;5.07;;
43337;SDS011;28933;52.492;13.434;2023-08-06T14:54:24;9.60;;;5.55;;
43337;SDS011;28933;52.492;13.434;2023-08-06T14:57:10;7.75;;;5.47;;
43337;SDS011;28933;52.492;13.434;2023-08-06T14:59:56;7.45;;;4.10;;
43337;SDS011;28933;52.492;13.434;2023-08-06T15:02:42;9.57;;;5.03;;
43337;SDS011;28933;52.492;13.434;2023-08-06T15:05:27;5.50;;;3.97;;
43337;SDS011;28933;52.492;13.434;2023-08-06T15:08:13;6.32;;;4.10;;
43337;SDS011;28933;52.492;13.434;2023-08-06T15:10:59;6.78;;;4.28;;
43337;SDS011;28933;52.492;13.434;2023-08-06T15:13:48;5.53;;;3.80;;
43337;SDS011;28933;52.492;13.434;2023-08-06T15:16:34;8.15;;;3.60;;
43337;SDS011;28933;52.492;13.434;2023-08-06T15:19:20;6.97;;;3.38;;
43337;SDS011;28933;52.492;13.434;2023-08-06T15:22:05;5.13;;;2.67;;
43337;SDS011;28933;52.492;13.434;2023-08-06T15:24:52;5.80;;;3.22;;
43337;SDS011;28933;52.492;13.434;2023-08-06T15:27:38;3.92;;;2.78;;
43337;SDS011;28933;52.492;13.434;2023-08-06T15:30:25;5.82;;;2.83;;
43337;SDS011;28933;52.492;13.434;2023-08-06T15:33:11;3.90;;;2.47;;
43337;SDS011;28933;52.492;13.434;2023-08-06T15:35:57;4.68;;;2.70;;
43337;SDS011;28933;52.492;13.434;2023-08-06T15:38:43;3.72;;;2.13;;
43337;SDS011;28933;52.492;13.434;2023-08-06T15:41:29;5.45;;;2.80;;
43337;SDS011;28933;52.492;13.434;2023-08-06T15:44:15;3.97;;;2.60;;
43337;SDS011;28933;52.492;13.434;2023-08-06T15:47:01;5.10;;;2.78;;
43337;SDS011;28933;52.492;13.434;2023-08-06T15:49:46;4.13;;;2.55;;
43337;SDS011;28933;52.492;13.434;2023-08-06T15:52:32;4.07;;;2.63;;
43337;SDS011;28933;52.492;13.434;2023-08-06T15:55:18;3.88;;;2.78;;
43337;SDS011;28933;52.492;13.434;2023-08-06T15:58:05;4.20;;;2.83;;
43337;SDS011;28933;52.492;13.434;2023-08-06T16:00:51;6.03;;;2.85;;
43337;SDS011;28933;52.492;13.434;2023-08-06T16:03:38;5.30;;;3.13;;
43337;SDS011;28933;52.492;13.434;2023-08-06T16:06:26;4.22;;;3.22;;
43337;SDS011;28933;52.492;13.434;2023-08-06T16:09:12;5.40;;;3.05;;
43337;SDS011;28933;52.492;13.434;2023-08-06T16:11:58;7.55;;;3.30;;
43337;SDS011;28933;52.492;13.434;2023-08-06T16:14:45;4.55;;;3.00;;
43337;SDS011;28933;52.492;13.434;2023-08-06T16:17:32;4.68;;;3.30;;
43337;SDS011;28933;52.492;13.434;2023-08-06T16:20:18;4.22;;;2.88;;
43337;SDS011;28933;52.492;13.434;2023-08-06T16:23:04;5.70;;;3.20;;
43337;SDS011;28933;52.492;13.434;2023-08-06T16:25:50;5.35;;;3.20;;
43337;SDS011;28933;52.492;13.434;2023-08-06T16:28:36;7.00;;;3.80;;
43337;SDS011;28933;52.492;13.434;2023-08-06T16:31:22;5.70;;;3.63;;
43337;SDS011;28933;52.492;13.434;2023-08-06T16:34:08;5.93;;;3.80;;
43337;SDS011;28933;52.492;13.434;2023-08-06T16:36:54;11.10;;;3.55;;
43337;SDS011;28933;52.492;13.434;2023-08-06T16:39:40;6.65;;;3.70;;
43337;SDS011;28933;52.492;13.434;2023-08-06T16:42:26;7.28;;;3.55;;
43337;SDS011;28933;52.492;13.434;2023-08-06T16:45:12;6.05;;;3.45;;
43337;SDS011;28933;52.492;13.434;2023-08-06T16:47:58;5.07;;;3.30;;
43337;SDS011;28933;52.492;13.434;2023-08-06T16:50:45;7.72;;;4.18;;
43337;SDS011;28933;52.492;13.434;2023-08-06T16:53:31;7.25;;;4.40;;
43337;SDS011;28933;52.492;13.434;2023-08-06T16:56:17;7.13;;;4.00;;
43337;SDS011;28933;52.492;13.434;2023-08-06T16:59:03;8.57;;;5.18;;
43337;SDS011;28933;52.492;13.434;2023-08-06T17:01:49;6.30;;;3.97;;
43337;SDS011;28933;52.492;13.434;2023-08-06T17:04:36;5.95;;;3.75;;
43337;SDS011;28933;52.492;13.434;2023-08-06T17:07:22;6.20;;;4.28;;
43337;SDS011;28933;52.492;13.434;2023-08-06T17:10:08;7.07;;;4.25;;
43337;SDS011;28933;52.492;13.434;2023-08-06T17:12:54;6.40;;;4.05;;
43337;SDS011;28933;52.492;13.434;2023-08-06T17:15:41;8.68;;;4.70;;
43337;SDS011;28933;52.492;13.434;2023-08-06T17:18:27;7.75;;;4.75;;
43337;SDS011;28933;52.492;13.434;2023-08-06T17:21:13;20.92;;;11.50;;
43337;SDS011;28933;52.492;13.434;2023-08-06T17:23:59;16.35;;;8.65;;
43337;SDS011;28933;52.492;13.434;2023-08-06T17:26:45;18.45;;;9.07;;
43337;SDS011;28933;52.492;13.434;2023-08-06T17:29:31;18.35;;;10.63;;
43337;SDS011;28933;52.492;13.434;2023-08-06T17:32:17;14.43;;;8.60;;
43337;SDS011;28933;52.492;13.434;2023-08-06T17:35:04;18.67;;;12.68;;
43337;SDS011;28933;52.492;13.434;2023-08-06T17:37:50;12.15;;;7.32;;
43337;SDS011;28933;52.492;13.434;2023-08-06T17:40:38;9.95;;;5.32;;
43337;SDS011;28933;52.492;13.434;2023-08-06T17:43:24;10.82;;;6.38;;
43337;SDS011;28933;52.492;13.434;2023-08-06T17:46:10;9.10;;;5.55;;
43337;SDS011;28933;52.492;13.434;2023-08-06T17:48:57;7.75;;;3.90;;
43337;SDS011;28933;52.492;13.434;2023-08-06T17:51:44;6.03;;;3.42;;
43337;SDS011;28933;52.492;13.434;2023-08-06T17:54:29;8.50;;;4.90;;
43337;SDS011;28933;52.492;13.434;2023-08-06T17:57:15;12.05;;;6.47;;
43337;SDS011;28933;52.492;13.434;2023-08-06T18:00:02;7.00;;;4.38;;
43337;SDS011;28933;52.492;13.434;2023-08-06T18:02:48;6.00;;;3.00;;
43337;SDS011;28933;52.492;13.434;2023-08-06T18:05:34;5.50;;;3.60;;
43337;SDS011;28933;52.492;13.434;2023-08-06T18:08:20;8.40;;;3.88;;